Time;durP1;ratioP1;P1;durP2;ratioP2;P2;SDS_P1;SDS_P2;PMS_P1;PMS_P2;Temp;Humidity;BMP_temperature;BMP_pressure;BME280_temperature;BME280_humidity;BME280_pressure;Samples;Min_cycle;Max_cycle;Signal;HPM_P1;HPM_P2
2023/01/31 00:00:21;;;;;;;0.40;0.40;;;2.60;99.90;;;;;;5030452;28;20232;-85
2023/01/31 00:02:46;;;;;;;0.23;0.23;;;2.60;99.90;;;;;;5031713;28;20241;-85
2023/01/31 00:05:12;;;;;;;0.40;0.40;;;2.70;99.90;;;;;;5030766;28;20668;-84
2023/01/31 00:07:37;;;;;;;0.40;0.40;;;2.60;99.90;;;;;;5029697;28;20203;-85
2023/01/31 00:10:03;;;;;;;0.30;0.30;;;2.50;99.90;;;;;;5025281;28;20236;-84
2023/01/31 00:12:28;;;;;;;0.40;0.40;;;2.60;99.90;;;;;;5031475;28;20188;-84
2023/01/31 00:14:54;;;;;;;0.40;0.40;;;2.50;99.90;;;;;;5029907;28;20239;-85
2023/01/31 00:17:20;;;;;;;0.30;0.30;;;2.50;99.90;;;;;;5017211;28;20279;-85
2023/01/31 00:19:45;;;;;;;0.30;0.30;;;2.50;99.90;;;;;;5021790;28;20221;-85
2023/01/31 00:22:11;;;;;;;0.37;0.37;;;2.50;99.90;;;;;;5029311;28;20191;-85
2023/01/31 00:24:36;;;;;;;0.40;0.40;;;2.40;99.90;;;;;;5022881;28;20221;-85
2023/01/31 00:27:02;;;;;;;0.30;0.30;;;2.40;99.90;;;;;;5028419;28;20717;-84
2023/01/31 00:29:27;;;;;;;0.40;0.40;;;2.40;99.90;;;;;;5029105;28;20202;-84
2023/01/31 00:31:52;;;;;;;0.40;0.40;;;2.50;99.90;;;;;;5028315;28;20198;-84
2023/01/31 00:34:18;;;;;;;0.30;0.30;;;2.50;99.90;;;;;;5021373;28;20238;-84
2023/01/31 00:36:43;;;;;;;0.40;0.40;;;2.50;99.90;;;;;;5024186;28;20843;-85
2023/01/31 00:39:10;;;;;;;0.40;0.40;;;2.50;99.90;;;;;;5025096;28;20271;-84
2023/01/31 00:41:37;;;;;;;0.40;0.40;;;2.40;99.90;;;;;;5029122;28;20253;-84
2023/01/31 00:44:03;;;;;;;0.40;0.40;;;2.40;99.90;;;;;;5029555;28;20488;-84
2023/01/31 00:46:29;;;;;;;0.47;0.47;;;2.40;99.90;;;;;;5027344;28;20529;-84
2023/01/31 00:48:56;;;;;;;0.40;0.40;;;2.40;99.90;;;;;;5029417;28;20479;-84
2023/01/31 00:51:23;;;;;;;0.40;0.40;;;2.30;99.90;;;;;;5028655;28;20180;-84
2023/01/31 00:53:49;;;;;;;0.40;0.40;;;2.40;99.90;;;;;;5030026;28;20438;-85
2023/01/31 00:56:21;;;;;;;0.40;0.40;;;2.40;99.90;;;;;;5028215;28;20538;-85
2023/01/31 00:58:47;;;;;;;0.50;0.50;;;2.50;99.90;;;;;;5030919;28;20442;-85
2023/01/31 01:01:17;;;;;;;0.40;0.40;;;2.40;99.90;;;;;;5029651;28;20450;-84
2023/01/31 01:03:44;;;;;;;0.40;0.40;;;2.40;99.90;;;;;;5027836;28;20200;-84
2023/01/31 01:06:10;;;;;;;0.40;0.40;;;2.40;99.90;;;;;;5029336;28;20485;-85
2023/01/31 01:08:37;;;;;;;0.50;0.50;;;2.40;99.90;;;;;;5031263;28;20508;-84
2023/01/31 01:11:08;;;;;;;0.40;0.40;;;2.40;99.90;;;;;;5021852;28;20461;-84
2023/01/31 01:13:34;;;;;;;0.40;0.40;;;2.30;99.90;;;;;;5025742;28;20478;-84
2023/01/31 01:16:11;;;;;;;0.40;0.40;;;2.30;99.90;;;;;;5024309;28;20497;-84
2023/01/31 01:18:37;;;;;;;0.40;0.40;;;2.30;99.90;;;;;;5027900;28;20457;-85
2023/01/31 01:21:12;;;;;;;0.40;0.40;;;2.30;99.90;;;;;;5023763;28;20454;-84
2023/01/31 01:23:38;;;;;;;0.50;0.50;;;2.20;99.90;;;;;;5025246;28;20485;-85
2023/01/31 01:26:05;;;;;;;0.30;0.30;;;2.30;99.90;;;;;;5026159;28;20515;-84
2023/01/31 01:28:36;;;;;;;0.30;0.30;;;2.20;99.90;;;;;;5030218;28;20443;-82
2023/01/31 01:31:06;;;;;;;0.40;0.40;;;2.20;99.90;;;;;;5028721;28;20466;-82
2023/01/31 01:33:31;;;;;;;0.40;0.40;;;2.30;99.90;;;;;;5030306;28;20442;-82
2023/01/31 01:36:00;;;;;;;0.37;0.37;;;2.40;99.90;;;;;;5027412;28;21269;-82
2023/01/31 01:38:26;;;;;;;0.40;0.40;;;2.50;99.90;;;;;;5031674;28;20191;-82
2023/01/31 01:40:51;;;;;;;0.40;0.40;;;2.60;99.90;;;;;;5026720;28;20442;-82
2023/01/31 01:43:16;;;;;;;0.40;0.40;;;2.60;99.90;;;;;;5030840;28;20249;-82
2023/01/31 01:45:43;;;;;;;0.30;0.30;;;2.60;99.90;;;;;;5018238;28;20576;-82
2023/01/31 01:48:14;;;;;;;0.30;0.30;;;2.60;99.90;;;;;;5020961;28;20195;-82
2023/01/31 01:50:44;;;;;;;0.50;0.50;;;2.60;99.90;;;;;;5022791;28;20526;-82
2023/01/31 01:53:18;;;;;;;0.40;0.40;;;2.60;99.90;;;;;;5014827;28;20491;-82
2023/01/31 01:55:50;;;;;;;0.30;0.30;;;2.60;99.90;;;;;;5028286;28;20457;-82
2023/01/31 01:58:18;;;;;;;0.40;0.40;;;2.60;99.90;;;;;;5026730;28;21029;-82
2023/01/31 02:00:44;;;;;;;0.30;0.30;;;2.60;99.90;;;;;;5023491;28;20442;-83
2023/01/31 02:03:10;;;;;;;0.40;0.40;;;2.60;99.90;;;;;;5029594;28;20446;-83
2023/01/31 02:05:42;;;;;;;0.30;0.30;;;2.70;99.90;;;;;;5025619;28;20478;-82
2023/01/31 02:08:09;;;;;;;0.40;0.40;;;2.60;99.90;;;;;;5027039;28;20528;-82
2023/01/31 02:11:02;;;;;;;0.30;0.30;;;2.60;99.90;;;;;;5023094;28;20450;-82
2023/01/31 02:13:28;;;;;;;0.40;0.40;;;2.60;99.90;;;;;;5024223;28;20477;-82
2023/01/31 02:15:55;;;;;;;0.40;0.40;;;2.70;99.90;;;;;;5027460;28;20462;-82
2023/01/31 02:18:22;;;;;;;0.40;0.40;;;2.60;99.90;;;;;;5027807;28;20525;-82
2023/01/31 02:21:06;;;;;;;0.40;0.40;;;2.60;99.90;;;;;;5021165;28;20450;-82
2023/01/31 02:24:02;;;;;;;0.40;0.40;;;2.60;99.90;;;;;;5010711;28;20465;-82
2023/01/31 02:26:45;;;;;;;0.30;0.30;;;2.70;99.90;;;;;;5024804;28;20485;-82
2023/01/31 02:29:26;;;;;;;0.40;0.40;;;2.70;99.90;;;;;;5024523;28;20453;-82
2023/01/31 02:31:58;;;;;;;0.40;0.40;;;2.70;99.90;;;;;;5022298;28;20434;-82
2023/01/31 02:34:46;;;;;;;0.40;0.40;;;2.70;99.90;;;;;;5025849;28;20811;-82
2023/01/31 02:37:39;;;;;;;0.40;0.40;;;2.60;99.90;;;;;;5024981;28;20576;-82
2023/01/31 02:40:21;;;;;;;0.27;0.27;;;2.60;99.90;;;;;;5020043;28;20561;-82
2023/01/31 02:43:20;;;;;;;0.40;0.40;;;2.60;99.90;;;;;;5040709;28;20476;-82
2023/01/31 02:45:58;;;;;;;0.30;0.30;;;2.70;99.90;;;;;;5025781;28;20565;-82
2023/01/31 02:48:54;;;;;;;0.40;0.40;;;2.70;99.90;;;;;;5026859;28;20448;-82
2023/01/31 02:51:25;;;;;;;0.40;0.40;;;2.80;99.90;;;;;;5025980;28;20431;-82
2023/01/31 02:54:10;;;;;;;0.40;0.40;;;2.80;99.90;;;;;;5025140;28;20461;-82
2023/01/31 02:56:39;;;;;;;0.30;0.30;;;2.80;99.90;;;;;;5024618;28;20504;-82
2023/01/31 02:59:25;;;;;;;0.30;0.30;;;2.90;99.90;;;;;;5029423;28;20477;-81
2023/01/31 03:01:58;;;;;;;0.40;0.40;;;2.90;99.90;;;;;;5026569;28;20471;-81
2023/01/31 03:04:23;;;;;;;0.40;0.40;;;2.90;99.90;;;;;;5029143;28;20926;-82
2023/01/31 03:07:00;;;;;;;0.40;0.40;;;3.00;99.90;;;;;;5028691;28;20581;-82
2023/01/31 03:09:35;;;;;;;0.40;0.40;;;3.00;99.90;;;;;;5027683;28;20647;-82
2023/01/31 03:12:13;;;;;;;0.40;0.40;;;3.00;99.90;;;;;;5024118;28;20449;-82
2023/01/31 03:14:51;;;;;;;0.40;0.40;;;3.00;99.90;;;;;;5022096;28;20992;-82
2023/01/31 03:17:35;;;;;;;0.40;0.40;;;3.10;99.90;;;;;;5027642;28;20467;-82
2023/01/31 03:20:15;;;;;;;0.30;0.30;;;3.10;99.90;;;;;;5023071;28;20521;-82
2023/01/31 03:23:04;;;;;;;0.40;0.40;;;3.10;99.90;;;;;;5022300;28;20488;-82
2023/01/31 03:25:33;;;;;;;0.30;0.30;;;3.10;99.90;;;;;;5027059;28;20473;-82
2023/01/31 03:28:05;;;;;;;0.30;0.30;;;3.00;99.90;;;;;;5028878;28;20438;-82
2023/01/31 03:30:36;;;;;;;0.30;0.30;;;3.00;99.90;;;;;;5028005;28;20434;-82
2023/01/31 03:33:10;;;;;;;0.40;0.40;;;3.00;99.90;;;;;;5031315;28;20450;-82
2023/01/31 03:35:39;;;;;;;0.30;0.30;;;3.00;99.90;;;;;;5029058;28;20504;-82
2023/01/31 03:38:15;;;;;;;0.30;0.30;;;3.00;99.90;;;;;;5029848;28;20433;-82
2023/01/31 03:40:49;;;;;;;0.40;0.40;;;3.00;99.90;;;;;;5030767;28;20801;-82
2023/01/31 03:43:36;;;;;;;0.30;0.30;;;2.90;99.90;;;;;;5031032;28;20445;-82
2023/01/31 03:46:17;;;;;;;0.40;0.40;;;2.90;99.90;;;;;;5029290;28;20485;-82
2023/01/31 03:48:48;;;;;;;0.40;0.40;;;2.90;99.90;;;;;;5033006;28;20430;-82
2023/01/31 03:51:20;;;;;;;0.40;0.40;;;2.90;99.90;;;;;;5031426;28;20441;-82
2023/01/31 03:53:53;;;;;;;0.40;0.40;;;2.90;99.90;;;;;;5024415;28;20564;-82
2023/01/31 03:56:25;;;;;;;0.40;0.40;;;2.90;99.90;;;;;;5032742;28;20533;-82
2023/01/31 03:58:58;;;;;;;0.40;0.40;;;2.90;99.90;;;;;;5030504;28;20545;-82
2023/01/31 04:01:27;;;;;;;0.40;0.40;;;3.00;99.90;;;;;;5026772;28;20529;-82
2023/01/31 04:03:55;;;;;;;0.40;0.40;;;3.00;99.90;;;;;;5023700;28;20485;-82
2023/01/31 04:06:21;;;;;;;0.30;0.30;;;3.00;99.90;;;;;;5027974;28;21012;-82
2023/01/31 04:08:47;;;;;;;0.30;0.30;;;3.00;99.90;;;;;;5013868;28;20482;-82
2023/01/31 04:11:13;;;;;;;0.40;0.40;;;3.00;99.90;;;;;;5027603;28;20570;-82
2023/01/31 04:13:41;;;;;;;0.30;0.30;;;3.00;99.90;;;;;;5030780;28;20230;-82
2023/01/31 04:16:07;;;;;;;0.30;0.30;;;3.00;99.90;;;;;;5029426;28;20461;-83
2023/01/31 04:18:32;;;;;;;0.30;0.30;;;2.90;99.90;;;;;;5032188;28;20507;-82
2023/01/31 04:20:58;;;;;;;0.30;0.30;;;3.00;99.90;;;;;;5031235;28;20949;-82
2023/01/31 04:23:26;;;;;;;0.30;0.30;;;3.00;99.90;;;;;;5031248;28;20187;-82
2023/01/31 04:25:53;;;;;;;0.30;0.30;;;3.00;99.90;;;;;;5031185;28;20293;-81
2023/01/31 04:28:19;;;;;;;0.33;0.33;;;3.10;99.90;;;;;;5027194;28;20450;-82
2023/01/31 04:30:45;;;;;;;0.37;0.37;;;3.00;99.90;;;;;;5029943;28;20430;-82
2023/01/31 04:33:11;;;;;;;0.30;0.30;;;3.10;99.90;;;;;;5027178;28;20539;-82
2023/01/31 04:35:39;;;;;;;0.30;0.30;;;3.10;99.90;;;;;;5031127;28;20651;-82
2023/01/31 04:38:05;;;;;;;0.30;0.30;;;3.10;99.90;;;;;;5028042;28;20647;-81
2023/01/31 04:40:30;;;;;;;0.40;0.40;;;3.10;99.90;;;;;;5028712;28;20430;-82
2023/01/31 04:42:56;;;;;;;0.30;0.30;;;3.10;99.90;;;;;;5026557;28;20199;-82
2023/01/31 04:45:21;;;;;;;0.20;0.20;;;3.20;99.90;;;;;;5024481;28;20211;-82
2023/01/31 04:47:47;;;;;;;0.40;0.40;;;3.20;99.90;;;;;;5028245;28;20191;-82
2023/01/31 04:50:12;;;;;;;0.30;0.30;;;3.20;99.90;;;;;;5027814;28;20187;-82
2023/01/31 04:52:38;;;;;;;0.40;0.40;;;3.20;99.90;;;;;;5029027;28;20563;-82
2023/01/31 04:55:03;;;;;;;0.30;0.30;;;3.20;99.90;;;;;;5030720;28;20183;-82
2023/01/31 04:57:29;;;;;;;0.30;0.30;;;3.30;99.90;;;;;;5030896;28;20183;-82
2023/01/31 04:59:54;;;;;;;0.40;0.40;;;3.20;99.90;;;;;;5029891;28;20195;-82
2023/01/31 05:02:22;;;;;;;0.40;0.40;;;3.20;99.90;;;;;;5018296;28;20653;-82
2023/01/31 05:04:47;;;;;;;0.40;0.40;;;3.20;99.90;;;;;;5029081;28;20686;-82
2023/01/31 05:07:13;;;;;;;0.40;0.40;;;3.20;99.90;;;;;;5029282;28;20489;-82
2023/01/31 05:09:41;;;;;;;0.33;0.33;;;3.20;99.90;;;;;;5029644;28;20184;-82
2023/01/31 05:12:07;;;;;;;0.30;0.30;;;3.30;99.90;;;;;;5031192;28;20191;-82
2023/01/31 05:14:32;;;;;;;0.30;0.30;;;3.30;99.90;;;;;;5026690;28;20497;-82
2023/01/31 05:16:58;;;;;;;0.40;0.40;;;3.30;99.90;;;;;;5028157;28;20813;-82
2023/01/31 05:19:23;;;;;;;0.30;0.30;;;3.30;99.90;;;;;;5030225;28;20191;-82
2023/01/31 05:21:57;;;;;;;0.30;0.30;;;3.30;99.90;;;;;;5030179;28;20191;-82
2023/01/31 05:24:24;;;;;;;0.30;0.30;;;3.30;99.90;;;;;;5026912;28;20626;-82
2023/01/31 05:26:52;;;;;;;0.30;0.30;;;3.40;99.90;;;;;;5018170;28;20981;-82
2023/01/31 05:29:18;;;;;;;0.30;0.30;;;3.40;99.90;;;;;;5024544;28;20456;-83
2023/01/31 05:31:44;;;;;;;0.40;0.40;;;3.40;99.90;;;;;;5023131;28;20548;-83
2023/01/31 05:34:13;;;;;;;0.30;0.30;;;3.40;99.90;;;;;;5028753;28;20259;-82
2023/01/31 05:36:40;;;;;;;0.30;0.30;;;3.40;99.90;;;;;;5023600;28;20954;-83
2023/01/31 05:39:05;;;;;;;0.40;0.40;;;3.40;99.90;;;;;;5022784;28;20442;-83
2023/01/31 05:41:31;;;;;;;0.30;0.30;;;3.30;99.90;;;;;;5024347;28;20454;-83
2023/01/31 05:43:56;;;;;;;0.30;0.30;;;3.30;99.90;;;;;;5019222;28;20274;-84
2023/01/31 05:46:22;;;;;;;0.30;0.30;;;3.30;99.90;;;;;;5023299;28;20222;-83
2023/01/31 05:48:47;;;;;;;0.33;0.33;;;3.30;99.90;;;;;;5028645;28;20194;-82
2023/01/31 05:51:13;;;;;;;0.30;0.30;;;3.30;99.90;;;;;;5024058;28;20191;-84
2023/01/31 05:53:38;;;;;;;0.20;0.20;;;3.30;99.90;;;;;;5027189;28;20661;-83
2023/01/31 05:56:04;;;;;;;0.30;0.30;;;3.30;99.90;;;;;;5026940;28;20197;-84
2023/01/31 05:58:29;;;;;;;0.30;0.30;;;3.20;99.90;;;;;;5027274;28;20834;-83
2023/01/31 06:00:55;;;;;;;0.27;0.27;;;3.20;99.90;;;;;;5020216;28;20271;-83
2023/01/31 06:03:21;;;;;;;0.20;0.20;;;3.20;99.90;;;;;;5025816;28;20332;-83
2023/01/31 06:05:48;;;;;;;0.30;0.30;;;3.20;99.90;;;;;;5028360;28;20478;-86
2023/01/31 06:08:17;;;;;;;0.37;0.37;;;3.20;99.90;;;;;;5029060;28;20179;-86
2023/01/31 06:10:42;;;;;;;0.30;0.30;;;3.20;99.90;;;;;;5026783;28;20521;-83
2023/01/31 06:13:08;;;;;;;0.30;0.30;;;3.20;99.90;;;;;;5025349;28;21041;-83
2023/01/31 06:15:33;;;;;;;0.30;0.30;;;3.20;99.90;;;;;;5028093;28;20191;-83
2023/01/31 06:17:59;;;;;;;0.30;0.30;;;3.20;99.90;;;;;;5026750;28;20187;-82
2023/01/31 06:20:25;;;;;;;0.30;0.30;;;3.20;99.90;;;;;;5023355;28;20191;-83
2023/01/31 06:22:51;;;;;;;0.40;0.40;;;3.20;99.90;;;;;;5028986;28;20192;-82
2023/01/31 06:25:17;;;;;;;0.40;0.40;;;3.20;99.90;;;;;;5028610;28;20445;-83
2023/01/31 06:27:42;;;;;;;0.30;0.30;;;3.20;99.90;;;;;;5026937;28;20230;-83
2023/01/31 06:30:09;;;;;;;0.30;0.30;;;3.30;99.90;;;;;;5026595;28;20187;-84
2023/01/31 06:32:35;;;;;;;0.30;0.30;;;3.30;99.90;;;;;;5029097;28;20191;-84
2023/01/31 06:35:01;;;;;;;0.30;0.30;;;3.30;99.90;;;;;;5026342;28;20445;-84
2023/01/31 06:37:27;;;;;;;0.30;0.30;;;3.40;99.90;;;;;;5028912;28;20693;-82
2023/01/31 06:39:52;;;;;;;0.30;0.30;;;3.40;99.90;;;;;;5025731;28;20545;-83
2023/01/31 06:42:18;;;;;;;0.30;0.30;;;3.50;99.90;;;;;;5028897;28;20198;-83
2023/01/31 06:44:44;;;;;;;0.30;0.30;;;3.50;99.90;;;;;;5023371;28;20278;-81
2023/01/31 06:47:09;;;;;;;0.30;0.30;;;3.60;99.90;;;;;;5026781;28;20227;-83
2023/01/31 06:49:35;;;;;;;0.30;0.30;;;3.60;99.90;;;;;;5025724;28;20192;-82
2023/01/31 06:52:00;;;;;;;0.27;0.27;;;3.60;99.90;;;;;;5025119;28;20662;-83
2023/01/31 06:54:26;;;;;;;0.20;0.20;;;3.70;99.90;;;;;;5027442;28;20670;-83
2023/01/31 06:56:53;;;;;;;0.30;0.30;;;3.70;99.90;;;;;;5021005;28;20203;-82
2023/01/31 06:59:18;;;;;;;0.20;0.20;;;3.90;99.90;;;;;;5018163;28;20539;-83
2023/01/31 07:01:44;;;;;;;0.30;0.30;;;3.90;99.90;;;;;;5022274;28;20457;-83
2023/01/31 07:04:09;;;;;;;0.30;0.30;;;3.90;99.90;;;;;;5024461;28;20190;-83
2023/01/31 07:06:35;;;;;;;0.20;0.20;;;3.80;99.90;;;;;;5028244;28;20770;-83
2023/01/31 07:09:00;;;;;;;0.40;0.40;;;3.90;99.90;;;;;;5027153;28;20540;-82
2023/01/31 07:11:25;;;;;;;0.30;0.30;;;4.00;99.90;;;;;;5023324;28;20277;-83
2023/01/31 07:13:52;;;;;;;0.30;0.30;;;3.90;99.90;;;;;;5016606;28;20241;-82
2023/01/31 07:16:22;;;;;;;0.40;0.40;;;4.00;99.90;;;;;;5031456;28;20183;-83
2023/01/31 07:18:51;;;;;;;0.30;0.30;;;4.10;99.90;;;;;;5024983;28;20445;-83
2023/01/31 07:21:16;;;;;;;0.40;0.40;;;4.10;99.90;;;;;;5023553;28;20470;-82
2023/01/31 07:23:44;;;;;;;0.30;0.30;;;4.10;99.90;;;;;;5032342;28;20960;-83
2023/01/31 07:26:09;;;;;;;0.30;0.30;;;4.20;99.90;;;;;;5025662;28;20222;-83
2023/01/31 07:28:36;;;;;;;0.30;0.30;;;4.20;99.90;;;;;;5026141;28;20456;-83
2023/01/31 07:31:12;;;;;;;0.33;0.33;;;4.30;99.90;;;;;;5027269;28;20203;-83
2023/01/31 07:33:39;;;;;;;0.40;0.40;;;4.30;99.90;;;;;;5031755;28;20457;-83
2023/01/31 07:36:05;;;;;;;0.30;0.30;;;4.40;99.90;;;;;;5030991;28;20586;-82
2023/01/31 07:38:32;;;;;;;0.20;0.20;;;4.40;99.90;;;;;;5030720;28;20438;-82
2023/01/31 07:40:59;;;;;;;0.30;0.30;;;4.40;99.90;;;;;;5030571;28;20480;-82
2023/01/31 07:43:25;;;;;;;0.30;0.30;;;4.30;99.90;;;;;;5031433;28;21292;-82
2023/01/31 07:45:51;;;;;;;0.40;0.40;;;4.40;99.90;;;;;;5026717;28;20493;-82
2023/01/31 07:48:22;;;;;;;0.40;0.40;;;4.40;99.90;;;;;;5025120;28;20449;-83
2023/01/31 07:50:51;;;;;;;0.40;0.40;;;4.50;99.90;;;;;;5027901;28;20192;-82
2023/01/31 07:53:17;;;;;;;0.20;0.20;;;4.50;99.90;;;;;;5030136;28;20453;-83
2023/01/31 07:55:46;;;;;;;0.30;0.30;;;4.50;99.90;;;;;;5028110;28;20457;-82
2023/01/31 07:58:15;;;;;;;0.30;0.30;;;4.60;99.90;;;;;;5028494;28;20450;-86
2023/01/31 08:03:35;;;;;;;0.30;0.30;;;4.60;99.90;;;;;;5027652;28;20437;-85
2023/01/31 08:06:09;;;;;;;0.30;0.30;;;4.70;99.90;;;;;;5030676;28;20468;-85
2023/01/31 08:08:35;;;;;;;0.30;0.30;;;4.70;99.90;;;;;;5025288;28;20449;-85
2023/01/31 08:11:01;;;;;;;0.30;0.30;;;4.70;99.90;;;;;;5025312;28;20438;-83
2023/01/31 08:13:26;;;;;;;0.20;0.20;;;4.70;99.90;;;;;;5035580;28;20814;-83
2023/01/31 08:15:52;;;;;;;0.30;0.30;;;4.70;99.90;;;;;;5022728;28;20227;-82
2023/01/31 08:18:18;;;;;;;0.30;0.30;;;4.70;99.90;;;;;;5024806;28;20188;-83
2023/01/31 08:20:44;;;;;;;0.30;0.30;;;4.60;99.90;;;;;;5030425;28;20914;-83
2023/01/31 08:23:09;;;;;;;0.30;0.30;;;4.70;99.90;;;;;;5029068;28;20549;-83
2023/01/31 08:25:35;;;;;;;0.30;0.30;;;4.60;99.90;;;;;;5028002;28;20211;-82
2023/01/31 08:28:02;;;;;;;0.20;0.20;;;4.60;99.90;;;;;;5030974;28;20555;-82
2023/01/31 08:30:28;;;;;;;0.30;0.30;;;4.60;99.90;;;;;;5029317;28;20184;-82
2023/01/31 08:32:54;;;;;;;0.30;0.30;;;4.60;99.90;;;;;;5026731;28;20533;-83
2023/01/31 08:35:20;;;;;;;0.30;0.30;;;4.60;99.90;;;;;;5029199;28;21043;-82
2023/01/31 08:37:45;;;;;;;0.30;0.30;;;4.50;99.90;;;;;;5023556;28;20473;-82
2023/01/31 08:40:11;;;;;;;0.30;0.30;;;4.50;99.90;;;;;;5025956;28;20198;-86
2023/01/31 08:42:37;;;;;;;0.20;0.20;;;4.50;99.90;;;;;;5029892;28;20547;-85
2023/01/31 08:45:02;;;;;;;0.30;0.30;;;4.50;99.90;;;;;;5030197;28;20187;-85
2023/01/31 08:47:28;;;;;;;0.23;0.23;;;4.50;99.90;;;;;;5030867;28;20238;-85
2023/01/31 08:49:53;;;;;;;0.30;0.30;;;4.40;99.90;;;;;;5028910;28;20192;-86
2023/01/31 08:52:19;;;;;;;0.20;0.20;;;4.50;99.90;;;;;;5030417;28;20215;-85
2023/01/31 08:54:44;;;;;;;0.30;0.30;;;4.40;99.90;;;;;;5031253;28;20270;-85
2023/01/31 08:57:10;;;;;;;0.30;0.30;;;4.40;99.90;;;;;;5027937;28;20713;-85
2023/01/31 08:59:35;;;;;;;0.30;0.30;;;4.40;99.90;;;;;;5027993;28;20263;-85
2023/01/31 09:02:01;;;;;;;0.20;0.20;;;4.50;99.90;;;;;;5029031;28;20288;-85
2023/01/31 09:04:27;;;;;;;0.20;0.20;;;4.50;99.90;;;;;;5027567;28;20226;-85
2023/01/31 09:06:54;;;;;;;0.30;0.30;;;4.50;99.90;;;;;;5028885;28;20481;-86
2023/01/31 09:09:19;;;;;;;0.30;0.30;;;4.50;99.90;;;;;;5020201;28;20199;-85
2023/01/31 09:11:45;;;;;;;0.27;0.27;;;4.40;99.90;;;;;;5022801;28;20475;-84
2023/01/31 09:14:10;;;;;;;0.30;0.30;;;4.50;99.90;;;;;;5025735;28;20216;-83
2023/01/31 09:16:37;;;;;;;0.30;0.30;;;4.50;99.90;;;;;;5019046;28;20196;-83
2023/01/31 09:19:02;;;;;;;0.30;0.30;;;4.50;99.90;;;;;;5028897;28;20223;-83
2023/01/31 09:21:28;;;;;;;0.30;0.30;;;4.50;99.90;;;;;;5031054;28;20938;-84
2023/01/31 09:23:56;;;;;;;0.30;0.30;;;4.50;99.90;;;;;;5023912;28;20181;-84
2023/01/31 09:26:22;;;;;;;0.30;0.30;;;4.40;99.90;;;;;;5027610;28;20215;-85
2023/01/31 09:28:49;;;;;;;0.30;0.30;;;4.50;99.90;;;;;;5025470;28;20445;-85
2023/01/31 09:31:17;;;;;;;0.27;0.27;;;4.40;99.90;;;;;;5029182;28;20762;-83
2023/01/31 09:33:43;;;;;;;0.30;0.30;;;4.40;99.90;;;;;;5028155;28;20448;-82
2023/01/31 09:36:14;;;;;;;0.30;0.30;;;4.40;99.90;;;;;;5026526;28;20477;-81
2023/01/31 09:38:40;;;;;;;0.30;0.30;;;4.50;99.90;;;;;;5019105;28;20447;-82
2023/01/31 09:41:17;;;;;;;0.30;0.30;;;4.50;99.90;;;;;;5027848;28;20495;-82
2023/01/31 09:43:49;;;;;;;0.20;0.20;;;4.50;99.90;;;;;;5015166;28;20188;-82
2023/01/31 09:46:19;;;;;;;0.30;0.30;;;4.50;99.90;;;;;;5025951;28;20591;-82
2023/01/31 09:48:49;;;;;;;0.20;0.20;;;4.50;99.90;;;;;;5026262;28;20486;-83
2023/01/31 09:51:15;;;;;;;0.30;0.30;;;4.50;99.90;;;;;;5026714;28;20515;-81
2023/01/31 09:53:42;;;;;;;0.30;0.30;;;4.50;99.90;;;;;;5030584;28;20941;-81
2023/01/31 09:56:08;;;;;;;0.30;0.30;;;4.50;99.90;;;;;;5028517;28;20934;-81
2023/01/31 09:58:51;;;;;;;0.20;0.20;;;4.50;99.90;;;;;;5027717;28;20438;-81
2023/01/31 10:01:24;;;;;;;0.30;0.30;;;4.50;99.90;;;;;;5025379;28;20190;-82
2023/01/31 10:04:18;;;;;;;0.23;0.23;;;4.50;99.90;;;;;;5022740;28;20442;-81
2023/01/31 10:06:52;;;;;;;0.20;0.20;;;4.50;99.90;;;;;;5028132;28;20929;-81
2023/01/31 10:09:26;;;;;;;0.20;0.20;;;4.60;99.90;;;;;;5029040;28;20446;-82
2023/01/31 10:11:59;;;;;;;0.20;0.20;;;4.60;99.90;;;;;;5025973;28;20477;-83
2023/01/31 10:14:46;;;;;;;0.27;0.27;;;4.70;99.90;;;;;;5024417;28;20900;-82
2023/01/31 10:17:37;;;;;;;0.20;0.20;;;4.70;99.90;;;;;;5015844;28;21315;-82
2023/01/31 10:20:25;;;;;;;0.30;0.30;;;4.70;99.90;;;;;;5022552;28;20453;-82
2023/01/31 10:23:10;;;;;;;0.30;0.30;;;4.70;99.90;;;;;;5030696;28;20610;-84
2023/01/31 10:25:43;;;;;;;0.30;0.30;;;4.80;99.90;;;;;;5028981;28;20469;-83
2023/01/31 10:28:23;;;;;;;0.30;0.30;;;4.80;99.90;;;;;;5020710;28;20446;-82
2023/01/31 10:31:07;;;;;;;0.30;0.30;;;4.90;99.90;;;;;;5023575;28;20839;-83
2023/01/31 10:33:45;;;;;;;0.20;0.20;;;4.80;99.90;;;;;;5028549;28;20508;-81
2023/01/31 10:36:21;;;;;;;0.30;0.30;;;4.80;99.90;;;;;;5020638;28;21164;-83
2023/01/31 10:39:01;;;;;;;0.20;0.20;;;4.90;99.90;;;;;;5017701;28;20527;-82
2023/01/31 10:41:46;;;;;;;0.30;0.30;;;4.90;99.90;;;;;;5028658;28;20441;-82
2023/01/31 10:44:47;;;;;;;0.20;0.20;;;4.90;99.90;;;;;;5026238;28;20481;-82
2023/01/31 10:47:15;;;;;;;0.20;0.20;;;5.00;99.90;;;;;;5016615;28;20481;-82
2023/01/31 10:49:47;;;;;;;0.20;0.20;;;5.00;99.90;;;;;;5019943;28;20484;-82
2023/01/31 10:52:34;;;;;;;0.20;0.20;;;5.10;99.90;;;;;;5029028;28;20533;-81
2023/01/31 10:55:24;;;;;;;0.20;0.20;;;5.00;99.90;;;;;;5026847;28;20442;-82
2023/01/31 10:57:50;;;;;;;0.20;0.20;;;5.10;99.90;;;;;;5038458;28;20474;-82
2023/01/31 11:00:21;;;;;;;0.20;0.20;;;5.10;99.90;;;;;;5025115;28;20426;-82
2023/01/31 11:02:47;;;;;;;0.20;0.20;;;5.10;99.90;;;;;;5026633;28;20960;-83
2023/01/31 11:05:18;;;;;;;0.20;0.20;;;5.20;99.90;;;;;;5025563;28;20453;-81
2023/01/31 11:07:44;;;;;;;0.30;0.30;;;5.20;99.90;;;;;;5026131;28;20466;-82
2023/01/31 11:10:22;;;;;;;0.20;0.20;;;5.20;99.90;;;;;;5028117;28;20446;-81
2023/01/31 11:12:58;;;;;;;0.20;0.20;;;5.20;99.90;;;;;;5020365;28;20201;-81
2023/01/31 11:15:27;;;;;;;0.20;0.20;;;5.30;99.90;;;;;;5022224;28;20445;-83
2023/01/31 11:17:56;;;;;;;0.20;0.20;;;5.30;99.90;;;;;;5028659;28;20462;-82
2023/01/31 11:20:27;;;;;;;0.20;0.20;;;5.30;99.90;;;;;;5026087;28;20795;-80
2023/01/31 11:22:54;;;;;;;0.20;0.20;;;5.30;99.90;;;;;;5025785;28;20543;-80
2023/01/31 11:25:22;;;;;;;0.23;0.23;;;5.30;99.90;;;;;;5026640;28;20430;-80
2023/01/31 11:27:51;;;;;;;0.20;0.20;;;5.30;99.90;;;;;;5021537;28;20459;-81
2023/01/31 11:30:39;;;;;;;0.30;0.30;;;5.30;99.90;;;;;;5024786;28;20469;-80
2023/01/31 11:33:05;;;;;;;0.20;0.20;;;5.30;99.90;;;;;;5026787;28;20476;-81
2023/01/31 11:35:32;;;;;;;0.20;0.20;;;5.40;99.90;;;;;;5023170;28;20431;-82
2023/01/31 11:38:02;;;;;;;0.30;0.30;;;5.40;99.90;;;;;;5027712;28;20456;-81
2023/01/31 11:40:34;;;;;;;0.20;0.20;;;5.40;99.90;;;;;;5025840;28;20468;-81
2023/01/31 11:43:13;;;;;;;0.20;0.20;;;5.50;99.90;;;;;;5022929;28;20450;-82
2023/01/31 11:45:44;;;;;;;0.20;0.20;;;5.50;99.90;;;;;;5027322;28;20466;-80
2023/01/31 11:48:12;;;;;;;0.30;0.30;;;5.60;99.90;;;;;;5028092;28;20461;-81
2023/01/31 11:50:41;;;;;;;0.23;0.23;;;5.60;99.90;;;;;;5026826;28;20500;-81
2023/01/31 11:53:38;;;;;;;0.20;0.20;;;5.60;99.90;;;;;;5014140;28;20553;-81
2023/01/31 11:56:26;;;;;;;0.20;0.20;;;5.70;99.90;;;;;;5008920;28;21075;-81
2023/01/31 11:58:54;;;;;;;0.20;0.20;;;5.70;99.90;;;;;;5029349;28;20469;-82
2023/01/31 12:01:22;;;;;;;0.20;0.20;;;5.80;99.90;;;;;;5027921;28;20623;-80
2023/01/31 12:03:52;;;;;;;0.20;0.20;;;5.80;99.90;;;;;;5032681;28;20543;-81
2023/01/31 12:06:30;;;;;;;0.20;0.20;;;5.80;99.90;;;;;;5030656;28;20493;-80
2023/01/31 12:08:58;;;;;;;0.20;0.20;;;5.80;99.90;;;;;;5027148;28;20445;-81
2023/01/31 12:11:30;;;;;;;0.23;0.23;;;5.80;99.90;;;;;;5028374;28;21138;-80
2023/01/31 12:14:16;;;;;;;0.20;0.20;;;5.90;99.90;;;;;;5025820;28;20477;-80
2023/01/31 12:16:43;;;;;;;0.20;0.20;;;5.90;99.90;;;;;;5020109;28;20457;-80
2023/01/31 12:19:11;;;;;;;0.20;0.20;;;5.90;99.90;;;;;;5020382;28;20430;-80
2023/01/31 12:22:06;;;;;;;0.30;0.30;;;5.90;99.90;;;;;;5029029;28;21371;-80
2023/01/31 12:24:53;;;;;;;0.20;0.20;;;5.90;99.90;;;;;;5026959;28;20501;-81
2023/01/31 12:27:40;;;;;;;0.20;0.20;;;5.90;99.90;;;;;;5028971;28;21266;-80
2023/01/31 12:30:33;;;;;;;0.20;0.20;;;5.90;99.90;;;;;;5029094;28;20442;-80
2023/01/31 12:33:17;;;;;;;0.20;0.20;;;5.90;99.90;;;;;;5013735;28;21026;-80
2023/01/31 12:36:17;;;;;;;0.20;0.20;;;6.00;99.90;;;;;;5031104;28;20457;-80
2023/01/31 12:39:06;;;;;;;0.30;0.30;;;6.00;99.90;;;;;;5030705;28;20438;-80
2023/01/31 12:41:39;;;;;;;0.20;0.20;;;6.00;99.90;;;;;;5029596;28;20442;-80
2023/01/31 12:44:36;;;;;;;0.20;0.20;;;6.00;99.90;;;;;;5026191;28;20449;-81
2023/01/31 12:47:20;;;;;;;0.20;0.20;;;6.10;99.90;;;;;;5029392;28;20515;-80
2023/01/31 12:50:10;;;;;;;0.20;0.20;;;6.10;99.90;;;;;;5025460;28;20431;-81
2023/01/31 12:53:02;;;;;;;0.20;0.20;;;6.10;99.90;;;;;;5030608;28;20451;-80
2023/01/31 12:55:39;;;;;;;0.30;0.30;;;6.20;99.90;;;;;;5028121;28;20430;-81
2023/01/31 12:58:38;;;;;;;0.20;0.20;;;6.10;99.90;;;;;;5025105;28;20972;-79
2023/01/31 13:01:11;;;;;;;0.20;0.20;;;6.20;99.90;;;;;;5026971;28;20815;-79
2023/01/31 13:03:44;;;;;;;0.20;0.20;;;6.10;99.90;;;;;;5015981;28;20449;-80
2023/01/31 13:06:18;;;;;;;0.30;0.30;;;6.10;99.90;;;;;;5025180;28;20465;-79
2023/01/31 13:08:54;;;;;;;0.20;0.20;;;6.20;99.90;;;;;;5027747;28;20484;-79
2023/01/31 13:11:29;;;;;;;0.20;0.20;;;6.20;99.90;;;;;;5025592;28;20430;-79
2023/01/31 13:14:09;;;;;;;0.13;0.13;;;6.30;99.90;;;;;;5025574;28;20486;-79
2023/01/31 13:16:38;;;;;;;0.20;0.20;;;6.30;99.90;;;;;;5022480;28;20476;-79
2023/01/31 13:19:10;;;;;;;0.20;0.20;;;6.40;99.90;;;;;;5028322;28;20450;-80